createdAt,value
2023-04-18T00:02:29.001Z,3.28
2023-04-18T00:05:30.678Z,3.40
2023-04-18T00:08:33.504Z,4.50
2023-04-18T00:11:35.096Z,4.00
2023-04-18T00:14:37.980Z,5.30
2023-04-18T00:17:39.727Z,3.22
2023-04-18T00:20:41.495Z,4.07
2023-04-18T00:23:43.174Z,4.03
2023-04-18T00:26:44.700Z,4.00
2023-04-18T00:29:46.959Z,3.53
2023-04-18T00:32:51.050Z,3.08
2023-04-18T00:35:53.817Z,4.75
2023-04-18T00:38:55.303Z,5.13
2023-04-18T00:41:56.845Z,3.33
2023-04-18T00:44:58.372Z,4.30
2023-04-18T00:48:00.312Z,3.70
2023-04-18T00:51:01.935Z,3.53
2023-04-18T00:54:06.427Z,3.63
2023-04-18T00:57:08.220Z,3.28
2023-04-18T01:00:10.378Z,3.60
2023-04-18T01:03:14.477Z,3.00
2023-04-18T01:06:16.620Z,3.65
2023-04-18T01:09:18.526Z,3.33
2023-04-18T01:12:20.126Z,3.20
2023-04-18T01:15:21.653Z,4.95
2023-04-18T01:18:24.266Z,3.30
2023-04-18T01:21:26.789Z,3.45
2023-04-18T01:24:29.729Z,3.60
2023-04-18T01:27:31.206Z,4.30
2023-04-18T01:30:35.266Z,3.80
2023-04-18T01:33:37.246Z,3.05
2023-04-18T01:36:39.006Z,3.22
2023-04-18T01:39:40.689Z,3.30
2023-04-18T01:42:42.268Z,3.15
2023-04-18T01:45:45.679Z,3.15
2023-04-18T01:48:47.123Z,3.05
2023-04-18T01:51:48.865Z,2.95
2023-04-18T01:54:50.715Z,4.50
2023-04-18T01:57:53.789Z,3.30
2023-04-18T02:00:57.682Z,2.72
2023-04-18T02:03:59.336Z,4.07
2023-04-18T02:07:01.004Z,3.30
2023-04-18T02:10:02.967Z,2.70
2023-04-18T02:13:04.817Z,2.90
2023-04-18T02:16:11.125Z,3.08
2023-04-18T02:19:12.647Z,3.17
2023-04-18T02:22:17.533Z,2.78
2023-04-18T02:25:19.021Z,3.90
2023-04-18T02:28:22.251Z,3.17
2023-04-18T02:31:23.824Z,3.72
2023-04-18T02:34:25.666Z,3.60
2023-04-18T02:37:27.233Z,3.00
2023-04-18T02:40:28.748Z,3.28
2023-04-18T02:43:30.483Z,3.00
2023-04-18T02:46:32.890Z,3.20
2023-04-18T02:49:35.291Z,2.90
2023-04-18T02:52:36.828Z,3.78
2023-04-18T02:55:38.384Z,3.35
2023-04-18T02:58:40.206Z,3.08
2023-04-18T03:02:00.262Z,2.85
2023-04-18T03:05:01.899Z,2.63
2023-04-18T03:08:03.557Z,3.45
2023-04-18T03:11:05.500Z,3.00
2023-04-18T03:14:07.077Z,3.17
2023-04-18T03:17:19.515Z,2.72
2023-04-18T03:20:23.940Z,3.80
2023-04-18T03:23:26.854Z,3.70
2023-04-18T03:26:28.766Z,3.28
2023-04-18T03:29:31.736Z,2.63
2023-04-18T03:32:35.114Z,4.68
2023-04-18T03:35:37.206Z,2.83
2023-04-18T03:38:40.452Z,2.75
2023-04-18T03:41:42.421Z,3.10
2023-04-18T03:44:44.542Z,4.35
2023-04-18T03:47:46.724Z,2.80
2023-04-18T03:50:49.799Z,3.47
2023-04-18T03:53:51.421Z,3.15
2023-04-18T03:56:53.097Z,2.83
2023-04-18T03:59:55.283Z,3.30
2023-04-18T04:02:56.943Z,3.30
2023-04-18T04:05:58.851Z,2.50
2023-04-18T04:09:00.885Z,3.15
2023-04-18T04:12:03.890Z,2.78
2023-04-18T04:15:06.031Z,2.38
2023-04-18T04:18:08.987Z,3.13
2023-04-18T04:21:13.824Z,3.03
2023-04-18T04:24:24.804Z,3.58
2023-04-18T04:27:26.875Z,2.85
2023-04-18T04:30:28.649Z,2.92
2023-04-18T04:33:33.187Z,2.47
2023-04-18T04:36:37.915Z,2.72
2023-04-18T04:39:41.302Z,3.22
2023-04-18T04:42:59.627Z,3.00
2023-04-18T04:46:07.759Z,2.22
2023-04-18T04:49:09.285Z,2.50
2023-04-18T04:52:11.330Z,3.17
2023-04-18T04:55:13.080Z,3.30
2023-04-18T04:58:16.424Z,2.80
2023-04-18T05:01:34.855Z,2.38
2023-04-18T05:04:36.565Z,2.70
2023-04-18T05:07:38.150Z,2.78
2023-04-18T05:10:39.711Z,3.67
2023-04-18T05:13:41.165Z,3.03
2023-04-18T05:16:42.752Z,2.80
2023-04-18T05:19:44.390Z,2.47
2023-04-18T05:22:45.877Z,3.85
2023-04-18T05:25:47.403Z,3.53
2023-04-18T05:28:49.120Z,2.90
2023-04-18T05:31:50.670Z,3.38
2023-04-18T05:34:52.236Z,3.22
2023-04-18T05:37:53.742Z,4.32
2023-04-18T05:40:55.725Z,4.47
2023-04-18T05:44:04.974Z,4.20
2023-04-18T05:47:18.628Z,3.90
2023-04-18T05:50:20.567Z,3.30
2023-04-18T05:53:22.062Z,4.38
2023-04-18T05:56:23.584Z,4.88
2023-04-18T05:59:26.672Z,3.17
2023-04-18T06:02:28.332Z,3.75
2023-04-18T06:05:30.287Z,5.43
2023-04-18T06:08:32.054Z,6.05
2023-04-18T06:11:35.472Z,4.13
2023-04-18T06:14:36.997Z,3.70
2023-04-18T06:17:38.585Z,3.90
2023-04-18T06:20:40.165Z,3.90
2023-04-18T06:23:41.617Z,4.65
2023-04-18T06:26:43.152Z,2.95
2023-04-18T06:29:44.669Z,3.83
2023-04-18T06:32:46.176Z,3.90
2023-04-18T06:35:47.671Z,3.45
2023-04-18T06:38:49.228Z,3.35
2023-04-18T06:41:50.805Z,2.90
2023-04-18T06:45:03.641Z,5.82
2023-04-18T06:48:05.864Z,5.35
2023-04-18T06:51:07.454Z,5.00
2023-04-18T06:54:08.957Z,3.92
2023-04-18T06:57:10.754Z,6.13
2023-04-18T07:00:12.888Z,3.42
2023-04-18T07:03:14.642Z,3.88
2023-04-18T07:06:16.309Z,4.18
2023-04-18T07:09:17.803Z,4.80
2023-04-18T07:12:19.437Z,5.90
2023-04-18T07:15:21.081Z,4.18
2023-04-18T07:18:34.282Z,5.38
2023-04-18T07:21:40.495Z,4.67
2023-04-18T07:24:42.161Z,7.07
2023-04-18T07:27:43.631Z,4.60
2023-04-18T07:30:45.130Z,4.18
2023-04-18T07:33:46.650Z,3.95
2023-04-18T07:36:48.371Z,3.72
2023-04-18T07:39:51.467Z,3.92
2023-04-18T07:42:53.261Z,3.53
2023-04-18T07:45:54.886Z,4.25
2023-04-18T07:48:56.363Z,4.88
2023-04-18T07:51:57.855Z,3.60
2023-04-18T07:54:59.305Z,3.50
2023-04-18T07:58:00.950Z,4.75
2023-04-18T08:01:02.714Z,4.35
2023-04-18T08:04:04.539Z,3.75
2023-04-18T08:07:06.164Z,4.78
2023-04-18T08:10:08.198Z,3.90
2023-04-18T08:13:09.749Z,3.58
2023-04-18T08:16:11.355Z,3.85
2023-04-18T08:19:13.205Z,3.42
2023-04-18T08:22:14.825Z,3.95
2023-04-18T08:25:16.489Z,4.68
2023-04-18T08:28:18.048Z,4.50
2023-04-18T08:31:19.635Z,3.55
2023-04-18T08:34:21.362Z,4.55
2023-04-18T08:37:22.897Z,3.92
2023-04-18T08:40:24.477Z,4.00
2023-04-18T08:43:25.998Z,5.65
2023-04-18T08:46:29.860Z,4.25
2023-04-18T08:49:31.541Z,4.25
2023-04-18T08:52:35.979Z,3.60
2023-04-18T08:55:37.882Z,3.65
2023-04-18T08:58:40.339Z,4.20
2023-04-18T09:02:01.405Z,3.80
2023-04-18T09:05:20.981Z,5.80
2023-04-18T09:08:24.288Z,4.75
2023-04-18T09:11:28.607Z,3.28
2023-04-18T09:14:30.370Z,4.13
2023-04-18T09:17:34.728Z,3.58
2023-04-18T09:20:39.159Z,3.78
2023-04-18T09:23:40.634Z,5.20
2023-04-18T09:26:42.131Z,3.85
2023-04-18T09:29:50.013Z,4.45
2023-04-18T09:32:57.788Z,3.22
2023-04-18T09:36:20.718Z,4.65
2023-04-18T09:39:27.952Z,4.07
2023-04-18T09:42:36.266Z,3.95
2023-04-18T09:45:38.666Z,4.78
2023-04-18T09:48:41.626Z,3.20
2023-04-18T09:51:46.632Z,2.83
2023-04-18T09:54:50.490Z,3.75
2023-04-18T09:57:53.866Z,3.00
2023-04-18T10:00:56.934Z,3.65
2023-04-18T10:04:02.011Z,4.00
2023-04-18T10:07:03.696Z,3.67
2023-04-18T10:10:05.747Z,3.53
2023-04-18T10:13:10.977Z,3.30
2023-04-18T10:16:12.748Z,3.75
2023-04-18T10:19:29.389Z,3.25
2023-04-18T10:22:31.798Z,4.05
2023-04-18T10:25:39.378Z,3.25
2023-04-18T10:29:01.563Z,2.90
2023-04-18T10:32:06.709Z,3.38
2023-04-18T10:35:08.649Z,3.58
2023-04-18T10:38:16.986Z,3.60
2023-04-18T10:41:22.612Z,3.55
2023-04-18T10:44:24.321Z,3.07
2023-04-18T10:47:25.956Z,3.78
2023-04-18T10:50:27.582Z,5.07
2023-04-18T10:53:29.061Z,4.32
2023-04-18T10:56:30.772Z,3.30
2023-04-18T10:59:34.109Z,4.07
2023-04-18T11:02:36.036Z,4.05
2023-04-18T11:05:37.691Z,3.65
2023-04-18T11:08:39.724Z,3.28
2023-04-18T11:11:42.398Z,3.95
2023-04-18T11:14:46.121Z,4.32
2023-04-18T11:17:59.328Z,3.95
2023-04-18T11:21:03.654Z,6.57
2023-04-18T11:24:05.400Z,5.60
2023-04-18T11:27:09.765Z,4.35
2023-04-18T11:30:13.059Z,3.72
2023-04-18T11:33:15.442Z,3.80
2023-04-18T11:36:17.072Z,6.18
2023-04-18T11:39:19.124Z,4.20
2023-04-18T11:42:21.107Z,7.05
2023-04-18T11:45:22.704Z,4.38
2023-04-18T11:48:33.567Z,4.38
2023-04-18T11:51:36.753Z,7.38
2023-04-18T11:54:45.322Z,6.30
2023-04-18T11:57:55.221Z,3.97
2023-04-18T12:00:56.762Z,5.55
2023-04-18T12:04:05.871Z,13.10
2023-04-18T12:07:07.562Z,17.23
2023-04-18T12:10:23.506Z,23.17
2023-04-18T12:13:27.195Z,21.13
2023-04-18T12:16:30.680Z,22.10
2023-04-18T12:19:32.915Z,18.25
2023-04-18T12:22:49.462Z,17.75
2023-04-18T12:25:58.831Z,14.48
2023-04-18T12:29:00.702Z,14.70
2023-04-18T12:32:02.377Z,11.07
2023-04-18T12:35:04.356Z,10.60
2023-04-18T12:38:05.936Z,9.98
2023-04-18T12:41:07.511Z,10.00
2023-04-18T12:44:09.280Z,10.65
2023-04-18T12:47:10.792Z,8.75
2023-04-18T12:50:19.006Z,8.00
2023-04-18T12:53:20.619Z,7.05
2023-04-18T12:56:22.094Z,9.05
2023-04-18T12:59:23.731Z,7.95
2023-04-18T13:02:26.391Z,10.73
2023-04-18T13:05:32.510Z,8.30
2023-04-18T13:08:35.263Z,8.38
2023-04-18T13:11:36.754Z,9.02
2023-04-18T13:14:38.509Z,8.27
2023-04-18T13:17:40.322Z,7.30
2023-04-18T13:20:41.891Z,8.05
2023-04-18T13:23:43.384Z,8.00
2023-04-18T13:26:44.903Z,5.55
2023-04-18T13:29:46.676Z,6.85
2023-04-18T13:32:48.211Z,6.00
2023-04-18T13:35:49.767Z,5.63
2023-04-18T13:38:51.594Z,6.80
2023-04-18T13:41:54.582Z,6.35
2023-04-18T13:44:56.131Z,5.78
2023-04-18T13:47:57.613Z,5.32
2023-04-18T13:50:59.151Z,7.00
2023-04-18T13:54:00.982Z,5.20
2023-04-18T13:57:03.295Z,4.95
2023-04-18T14:00:06.558Z,10.77
2023-04-18T14:03:13.638Z,6.78
2023-04-18T14:06:15.644Z,6.00
2023-04-18T14:09:17.873Z,9.65
2023-04-18T14:12:19.364Z,7.38
2023-04-18T14:15:21.431Z,8.38
2023-04-18T14:18:24.521Z,6.13
2023-04-18T14:21:26.504Z,5.85
2023-04-18T14:24:28.186Z,5.07
2023-04-18T14:27:30.085Z,6.85
2023-04-18T14:30:31.755Z,6.68
2023-04-18T14:33:34.096Z,6.45
2023-04-18T14:36:35.848Z,6.40
2023-04-18T14:39:38.011Z,8.05
2023-04-18T14:42:39.550Z,6.22
2023-04-18T14:45:41.000Z,8.13
2023-04-18T14:48:45.001Z,6.38
2023-04-18T14:51:46.558Z,8.23
2023-04-18T14:54:48.129Z,6.40
2023-04-18T14:57:49.682Z,7.05
2023-04-18T15:00:51.143Z,7.28
2023-04-18T15:03:53.047Z,6.05
2023-04-18T15:06:54.818Z,5.88
2023-04-18T15:09:56.410Z,6.97
2023-04-18T15:12:57.882Z,6.50
2023-04-18T15:15:59.361Z,6.45
2023-04-18T15:19:00.829Z,6.68
2023-04-18T15:22:02.912Z,7.47
2023-04-18T15:25:05.581Z,6.88
2023-04-18T15:28:07.051Z,7.10
2023-04-18T15:31:09.514Z,4.85
2023-04-18T15:34:11.806Z,6.32
2023-04-18T15:37:13.285Z,5.95
2023-04-18T15:40:16.385Z,5.50
2023-04-18T15:43:18.089Z,4.30
2023-04-18T15:46:19.588Z,5.70
2023-04-18T15:49:21.290Z,8.65
2023-04-18T15:52:22.838Z,5.88
2023-04-18T15:55:24.338Z,5.82
2023-04-18T15:58:29.886Z,6.03
2023-04-18T16:01:32.120Z,4.60
2023-04-18T16:04:33.793Z,6.13
2023-04-18T16:07:35.337Z,5.35
2023-04-18T16:10:37.406Z,4.30
2023-04-18T16:13:38.962Z,6.10
2023-04-18T16:16:40.447Z,4.00
2023-04-18T16:19:41.935Z,4.72
2023-04-18T16:22:43.443Z,5.40
2023-04-18T16:25:44.920Z,4.10
2023-04-18T16:28:48.083Z,4.72
2023-04-18T16:31:51.556Z,5.50
2023-04-18T16:34:53.279Z,4.35
2023-04-18T16:37:54.775Z,5.40
2023-04-18T16:41:01.483Z,4.70
2023-04-18T16:44:03.079Z,4.70
2023-04-18T16:47:05.932Z,4.95
2023-04-18T16:50:08.026Z,4.45
2023-04-18T16:53:09.574Z,4.88
2023-04-18T16:56:11.157Z,3.97
2023-04-18T16:59:12.683Z,6.28
2023-04-18T17:02:14.263Z,4.30
2023-04-18T17:05:15.847Z,4.10
2023-04-18T17:08:17.591Z,4.35
2023-04-18T17:11:20.720Z,5.55
2023-04-18T17:14:22.194Z,4.32
2023-04-18T17:17:23.893Z,4.90
2023-04-18T17:20:25.617Z,6.30
2023-04-18T17:23:27.220Z,3.47
2023-04-18T17:26:31.550Z,5.00
2023-04-18T17:29:33.009Z,3.58
2023-04-18T17:32:35.266Z,3.60
2023-04-18T17:35:36.893Z,4.68
2023-04-18T17:38:38.633Z,3.40
2023-04-18T17:41:40.216Z,3.85
2023-04-18T17:44:41.757Z,3.80
2023-04-18T17:47:43.270Z,5.35
2023-04-18T17:50:44.763Z,3.58
2023-04-18T17:53:46.515Z,5.20
2023-04-18T17:56:48.218Z,3.17
2023-04-18T17:59:49.677Z,3.20
2023-04-18T18:02:51.359Z,3.78
2023-04-18T18:05:54.901Z,3.10
2023-04-18T18:08:56.623Z,3.30
2023-04-18T18:11:58.612Z,3.35
2023-04-18T18:15:00.315Z,3.22
2023-04-18T18:18:01.914Z,4.45
2023-04-18T18:21:03.855Z,3.22
2023-04-18T18:24:06.108Z,3.75
2023-04-18T18:27:07.646Z,3.38
2023-04-18T18:30:09.354Z,3.47
2023-04-18T18:33:10.830Z,4.90
2023-04-18T18:36:12.324Z,3.40
2023-04-18T18:39:16.340Z,3.38
2023-04-18T18:42:18.053Z,5.30
2023-04-18T18:45:21.057Z,4.47
2023-04-18T18:48:23.843Z,4.65
2023-04-18T18:51:26.197Z,3.45
2023-04-18T18:54:28.071Z,3.75
2023-04-18T18:57:29.527Z,5.43
2023-04-18T19:00:31.008Z,6.97
2023-04-18T19:03:34.118Z,8.65
2023-04-18T19:06:35.628Z,8.30
2023-04-18T19:09:37.089Z,10.18
2023-04-18T19:12:38.544Z,10.98
2023-04-18T19:15:43.000Z,11.35
2023-04-18T19:18:49.073Z,13.02
2023-04-18T19:21:50.568Z,10.02
2023-04-18T19:24:52.137Z,10.35
2023-04-18T19:27:53.571Z,9.88
2023-04-18T19:30:55.165Z,9.77
2023-04-18T19:33:56.613Z,8.38
2023-04-18T19:36:58.129Z,9.75
2023-04-18T19:39:59.562Z,7.25
2023-04-18T19:43:01.050Z,8.00
2023-04-18T19:46:02.498Z,7.50
2023-04-18T19:49:04.049Z,7.78
2023-04-18T19:52:06.107Z,8.23
2023-04-18T19:55:07.941Z,8.43
2023-04-18T19:58:09.381Z,6.93
2023-04-18T20:01:12.061Z,9.02
2023-04-18T20:04:13.663Z,6.25
2023-04-18T20:07:15.211Z,5.57
2023-04-18T20:10:21.250Z,7.78
2023-04-18T20:13:22.730Z,6.50
2023-04-18T20:16:24.196Z,6.00
2023-04-18T20:19:26.675Z,6.47
2023-04-18T20:22:28.218Z,7.13
2023-04-18T20:25:29.776Z,6.15
2023-04-18T20:28:31.628Z,5.50
2023-04-18T20:31:33.084Z,5.80
2023-04-18T20:34:34.565Z,5.78
2023-04-18T20:37:36.642Z,5.80
2023-04-18T20:40:39.633Z,5.95
2023-04-18T20:43:43.365Z,6.90
2023-04-18T20:46:44.830Z,5.30
2023-04-18T20:49:46.321Z,5.30
2023-04-18T20:52:47.811Z,4.43
2023-04-18T20:55:49.321Z,6.32
2023-04-18T20:58:50.908Z,4.60
2023-04-18T21:01:52.502Z,4.43
2023-04-18T21:04:54.641Z,3.88
2023-04-18T21:07:56.191Z,4.30
2023-04-18T21:10:57.647Z,5.57
2023-04-18T21:13:59.225Z,4.13
2023-04-18T21:17:00.754Z,4.78
2023-04-18T21:20:02.340Z,4.70
2023-04-18T21:23:03.887Z,3.92
2023-04-18T21:26:05.369Z,4.70
2023-04-18T21:29:06.922Z,4.25
2023-04-18T21:32:08.470Z,4.00
2023-04-18T21:35:10.157Z,5.88
2023-04-18T21:38:11.682Z,3.78
2023-04-18T21:41:16.843Z,3.90
2023-04-18T21:44:18.876Z,4.07
2023-04-18T21:47:20.534Z,4.00
2023-04-18T21:50:22.106Z,4.18
2023-04-18T21:53:23.655Z,4.60
2023-04-18T21:56:25.199Z,3.72
2023-04-18T21:59:26.743Z,4.18
2023-04-18T22:02:28.303Z,3.50
2023-04-18T22:05:30.350Z,3.50
2023-04-18T22:08:34.509Z,4.25
2023-04-18T22:11:36.505Z,3.35
2023-04-18T22:14:38.040Z,4.35
2023-04-18T22:17:41.610Z,4.28
2023-04-18T22:20:43.729Z,3.92
2023-04-18T22:23:45.562Z,4.13
2023-04-18T22:26:47.024Z,3.97
2023-04-18T22:29:48.490Z,3.83
2023-04-18T22:32:50.112Z,4.50
2023-04-18T22:35:52.902Z,4.05
2023-04-18T22:38:54.371Z,4.88
2023-04-18T22:41:55.792Z,3.28
2023-04-18T22:44:57.506Z,3.45
2023-04-18T22:47:58.983Z,3.20
2023-04-18T22:51:01.775Z,3.88
2023-04-18T22:54:03.323Z,4.05
2023-04-18T22:57:04.761Z,4.53
2023-04-18T23:00:07.048Z,3.80
2023-04-18T23:03:08.668Z,5.63
2023-04-18T23:06:10.233Z,3.10
2023-04-18T23:09:11.723Z,3.05
2023-04-18T23:12:13.212Z,3.38
2023-04-18T23:15:14.705Z,3.60
2023-04-18T23:18:16.193Z,3.50
2023-04-18T23:21:17.922Z,4.13
2023-04-18T23:24:19.398Z,3.20
2023-04-18T23:27:20.932Z,3.72
2023-04-18T23:30:22.481Z,4.05
2023-04-18T23:33:23.976Z,3.58
2023-04-18T23:36:26.187Z,3.55
2023-04-18T23:39:27.774Z,3.17
2023-04-18T23:42:29.297Z,3.85
2023-04-18T23:45:31.044Z,3.95
2023-04-18T23:48:32.512Z,3.30
2023-04-18T23:51:33.964Z,3.33
2023-04-18T23:54:35.861Z,3.13
2023-04-18T23:57:37.356Z,3.05
